Munson — MUNSON — position and weather

sailwx.info

Track history (hours):
 
Tides and Currents Weather Stations Pressure Air Temp Water Temp Dewpoint Dewpoint Depression Visibility Wind Speed Wind Dir Waves Ship Positions

Munson

Last reported at 2018-Jun-29 16:27 UTC. Time now 2018-Aug-14 19:26 UTC.
Position N 47°20' W 122°25'.
Warning: this ship's position is 46 days out of date.

Length 9 m.

Type: Diving. MMSI: 338230285.

Date/timePositionNaut miles runAvg speedWind from/ knotsBaromVisibWave heightAir tempDewpointWater temp
2018-Jun-29 16:27N 47°20' W 122°25'0 0.9
2018-Jun-29 16:00N 47°19' W 122°25'2 0.1
2018-Jun-28 22:36N 47°18' W 122°26'217.8
2018-Jun-28 22:30N 47°19' W 122°25'0 0.5
2018-Jun-28 22:00N 47°19' W 122°25'0 0.1
2018-Jun-28 21:28N 47°19' W 122°25'0 0.7
2018-Jun-28 21:00N 47°19' W 122°25'0 0.2
2018-Jun-28 20:27N 47°19' W 122°25'0 0.1
2018-Jun-28 20:00N 47°19' W 122°25'1 1.2
2018-Jun-28 19:28N 47°19' W 122°25'0 0.6
2018-Jun-28 19:00N 47°20' W 122°25'0 0.4
2018-Jun-28 18:27N 47°20' W 122°25'0 1.0
2018-Jun-28 17:59N 47°20' W 122°25'0 1.0
2018-Jun-28 17:30N 47°20' W 122°25'0 0.4
2018-Jun-28 17:00N 47°19' W 122°25'0 0.3
2018-Jun-28 16:30N 47°20' W 122°25'0 0.8
2018-Jun-28 16:00N 47°20' W 122°25'0 1.0
2018-Jun-28 15:30N 47°19' W 122°25'0 0.2
2018-Jun-28 14:57N 47°19' W 122°25'1 0.1
2018-Jun-27 22:54N 47°19' W 122°26'1 2.2
2018-Jun-27 22:29N 47°19' W 122°25'0 0.0
2018-Jun-27 21:58N 47°19' W 122°25'0 0.3
2018-Jun-27 21:26N 47°19' W 122°25'0 0.2
2018-Jun-27 20:57N 47°19' W 122°26'0 0.3
2018-Jun-27 20:30N 47°19' W 122°25'0 0.4
2018-Jun-27 20:00N 47°20' W 122°25'0 0.3
2018-Jun-27 19:27N 47°19' W 122°25'0 0.1
2018-Jun-27 19:00N 47°19' W 122°25'0 0.2
2018-Jun-27 18:30N 47°19' W 122°25'7 9.6
2018-Jun-27 17:49N 47°24' W 122°32'3 7.8
2018-Jun-27 17:24N 47°28' W 122°31'2 5.3
2018-Jun-27 17:00N 47°26' W 122°32'7 9.3
2018-Jun-27 16:13N 47°18' W 122°31'418.6
2018-Jun-27 16:00N 47°19' W 122°25'0 0.7
2018-Jun-27 15:28N 47°20' W 122°25'1 1.1
2018-Jun-27 14:58N 47°19' W 122°25'0 0.0
2018-Jun-26 22:20N 47°19' W 122°25'0 0.0
2018-Jun-26 20:26N 47°19' W 122°25'1 1.4
2018-Jun-26 19:47N 47°19' W 122°26'1 4.1
2018-Jun-26 19:30N 47°19' W 122°25'0 0.5
2018-Jun-26 19:00N 47°19' W 122°25'0 0.6
2018-Jun-26 18:30N 47°20' W 122°25'0 0.1
2018-Jun-26 17:20N 47°19' W 122°25'0 0.5
2018-Jun-26 17:00N 47°19' W 122°25'0 0.2
2018-Jun-26 16:00N 47°19' W 122°25'0 0.6
2018-Jun-26 15:30N 47°19' W 122°25'2 0.1
2018-Jun-25 23:02N 47°18' W 122°27'124.4
2018-Jun-25 23:01N 47°19' W 122°27'1 2.4
2018-Jun-25 22:30N 47°19' W 122°25'0 0.8
2018-Jun-25 22:00N 47°20' W 122°25'0 0.8
2018-Jun-25 21:30N 47°19' W 122°25'0 0.3
2018-Jun-25 21:00N 47°19' W 122°25'0 0.2
2018-Jun-25 20:30N 47°19' W 122°25'0 0.5
2018-Jun-25 20:00N 47°20' W 122°25'0 0.2
2018-Jun-25 19:30N 47°20' W 122°25'0 0.2
2018-Jun-25 18:59N 47°20' W 122°25'0 0.3
2018-Jun-25 18:30N 47°20' W 122°25'0 0.4
2018-Jun-25 17:58N 47°20' W 122°25'0 0.5
2018-Jun-25 17:30N 47°20' W 122°25'0 0.4
2018-Jun-25 17:00N 47°20' W 122°25'0 0.7
2018-Jun-25 16:29N 47°20' W 122°24'1 1.0
2018-Jun-25 15:59N 47°20' W 122°25'  
2018-Jun-22 22:24N 47°19' W 122°25'0 0.1
2018-Jun-22 20:13N 47°20' W 122°25'0 0.5
2018-Jun-22 19:59N 47°20' W 122°25'0 0.2
2018-Jun-22 19:14N 47°20' W 122°25'0 1.1
2018-Jun-22 18:58N 47°20' W 122°25'0 0.1
2018-Jun-22 18:30N 47°19' W 122°25'0 0.7
2018-Jun-22 17:59N 47°19' W 122°25'0 0.2
2018-Jun-22 17:27N 47°20' W 122°25'0 0.4
2018-Jun-22 16:59N 47°19' W 122°25'0 0.0
2018-Jun-22 14:57N 47°19' W 122°25'1 0.1
2018-Jun-21 22:48N 47°19' W 122°26'1 2.9
2018-Jun-21 22:28N 47°19' W 122°25'0 0.1
2018-Jun-21 22:00N 47°19' W 122°25'0 0.2
2018-Jun-21 21:28N 47°19' W 122°25'0 0.3
2018-Jun-21 21:00N 47°19' W 122°25'0 0.2
2018-Jun-21 20:29N 47°19' W 122°25'0 0.3
2018-Jun-21 20:00N 47°19' W 122°25'1 1.2
2018-Jun-21 19:30N 47°20' W 122°24'4 8.2
2018-Jun-21 19:00N 47°16' W 122°26'1 1.4
2018-Jun-21 18:30N 47°16' W 122°27'1018.1
2018-Jun-21 17:58N 47°25' W 122°31'0 0.6
2018-Jun-21 17:14N 47°26' W 122°31'2 8.2
2018-Jun-21 17:00N 47°28' W 122°31'1 1.4
2018-Jun-21 16:25N 47°27' W 122°31'1 2.4
2018-Jun-21 15:49N 47°26' W 122°31'1 3.0
2018-Jun-21 15:25N 47°24' W 122°31'3 4.6
2018-Jun-21 14:46N 47°21' W 122°32'5 0.3
2018-Jun-20 21:09N 47°18' W 122°27'528.4
2018-Jun-20 20:59N 47°22' W 122°32'3 4.9
2018-Jun-20 20:18N 47°25' W 122°31'1 1.7
2018-Jun-20 20:00N 47°25' W 122°31'0 0.3
2018-Jun-20 19:28N 47°26' W 122°31'0 0.4
2018-Jun-20 18:56N 47°26' W 122°31'0 0.3
2018-Jun-20 18:18N 47°26' W 122°31'1 2.2
2018-Jun-20 17:58N 47°26' W 122°31'1 1.4
2018-Jun-20 17:18N 47°25' W 122°31'823.3
2018-Jun-20 16:59N 47°18' W 122°33'  
Track history (hours):
 
Tides and Currents Weather Stations Pressure Air Temp Water Temp Dewpoint Dewpoint Depression Visibility Wind Speed Wind Dir Waves Ship Positions

Munson

Last reported at 2018-Jun-29 16:27 UTC. Time now 2018-Aug-14 19:26 UTC.
Position N 47°20' W 122°25'.
Warning: this ship's position is 46 days out of date.

Length 9 m.

Type: Diving. MMSI: 338230285.

Date/timePositionNaut miles runAvg speedWind from/ knotsBaromVisibWave heightAir tempDewpointWater temp
2018-Jun-29 16:27N 47°20' W 122°25'0 0.9
2018-Jun-29 16:00N 47°19' W 122°25'2 0.1
2018-Jun-28 22:36N 47°18' W 122°26'217.8
2018-Jun-28 22:30N 47°19' W 122°25'0 0.5
2018-Jun-28 22:00N 47°19' W 122°25'0 0.1
2018-Jun-28 21:28N 47°19' W 122°25'0 0.7
2018-Jun-28 21:00N 47°19' W 122°25'0 0.2
2018-Jun-28 20:27N 47°19' W 122°25'0 0.1
2018-Jun-28 20:00N 47°19' W 122°25'1 1.2
2018-Jun-28 19:28N 47°19' W 122°25'0 0.6
2018-Jun-28 19:00N 47°20' W 122°25'0 0.4
2018-Jun-28 18:27N 47°20' W 122°25'0 1.0
2018-Jun-28 17:59N 47°20' W 122°25'0 1.0
2018-Jun-28 17:30N 47°20' W 122°25'0 0.4
2018-Jun-28 17:00N 47°19' W 122°25'0 0.3
2018-Jun-28 16:30N 47°20' W 122°25'0 0.8
2018-Jun-28 16:00N 47°20' W 122°25'0 1.0
2018-Jun-28 15:30N 47°19' W 122°25'0 0.2
2018-Jun-28 14:57N 47°19' W 122°25'1 0.1
2018-Jun-27 22:54N 47°19' W 122°26'1 2.2
2018-Jun-27 22:29N 47°19' W 122°25'0 0.0
2018-Jun-27 21:58N 47°19' W 122°25'0 0.3
2018-Jun-27 21:26N 47°19' W 122°25'0 0.2
2018-Jun-27 20:57N 47°19' W 122°26'0 0.3
2018-Jun-27 20:30N 47°19' W 122°25'0 0.4
2018-Jun-27 20:00N 47°20' W 122°25'0 0.3
2018-Jun-27 19:27N 47°19' W 122°25'0 0.1
2018-Jun-27 19:00N 47°19' W 122°25'0 0.2
2018-Jun-27 18:30N 47°19' W 122°25'7 9.6
2018-Jun-27 17:49N 47°24' W 122°32'3 7.8
2018-Jun-27 17:24N 47°28' W 122°31'2 5.3
2018-Jun-27 17:00N 47°26' W 122°32'7 9.3
2018-Jun-27 16:13N 47°18' W 122°31'418.6
2018-Jun-27 16:00N 47°19' W 122°25'0 0.7
2018-Jun-27 15:28N 47°20' W 122°25'1 1.1
2018-Jun-27 14:58N 47°19' W 122°25'0 0.0
2018-Jun-26 22:20N 47°19' W 122°25'0 0.0
2018-Jun-26 20:26N 47°19' W 122°25'1 1.4
2018-Jun-26 19:47N 47°19' W 122°26'1 4.1
2018-Jun-26 19:30N 47°19' W 122°25'0 0.5
2018-Jun-26 19:00N 47°19' W 122°25'0 0.6
2018-Jun-26 18:30N 47°20' W 122°25'0 0.1
2018-Jun-26 17:20N 47°19' W 122°25'0 0.5
2018-Jun-26 17:00N 47°19' W 122°25'0 0.2
2018-Jun-26 16:00N 47°19' W 122°25'0 0.6
2018-Jun-26 15:30N 47°19' W 122°25'2 0.1
2018-Jun-25 23:02N 47°18' W 122°27'124.4
2018-Jun-25 23:01N 47°19' W 122°27'1 2.4
2018-Jun-25 22:30N 47°19' W 122°25'0 0.8
2018-Jun-25 22:00N 47°20' W 122°25'0 0.8
2018-Jun-25 21:30N 47°19' W 122°25'0 0.3
2018-Jun-25 21:00N 47°19' W 122°25'0 0.2
2018-Jun-25 20:30N 47°19' W 122°25'0 0.5
2018-Jun-25 20:00N 47°20' W 122°25'0 0.2
2018-Jun-25 19:30N 47°20' W 122°25'0 0.2
2018-Jun-25 18:59N 47°20' W 122°25'0 0.3
2018-Jun-25 18:30N 47°20' W 122°25'0 0.4
2018-Jun-25 17:58N 47°20' W 122°25'0 0.5
2018-Jun-25 17:30N 47°20' W 122°25'0 0.4
2018-Jun-25 17:00N 47°20' W 122°25'0 0.7
2018-Jun-25 16:29N 47°20' W 122°24'1 1.0
2018-Jun-25 15:59N 47°20' W 122°25'  
2018-Jun-22 22:24N 47°19' W 122°25'0 0.1
2018-Jun-22 20:13N 47°20' W 122°25'0 0.5
2018-Jun-22 19:59N 47°20' W 122°25'0 0.2
2018-Jun-22 19:14N 47°20' W 122°25'0 1.1
2018-Jun-22 18:58N 47°20' W 122°25'0 0.1
2018-Jun-22 18:30N 47°19' W 122°25'0 0.7
2018-Jun-22 17:59N 47°19' W 122°25'0 0.2
2018-Jun-22 17:27N 47°20' W 122°25'0 0.4
2018-Jun-22 16:59N 47°19' W 122°25'0 0.0
2018-Jun-22 14:57N 47°19' W 122°25'1 0.1
2018-Jun-21 22:48N 47°19' W 122°26'1 2.9
2018-Jun-21 22:28N 47°19' W 122°25'0 0.1
2018-Jun-21 22:00N 47°19' W 122°25'0 0.2
2018-Jun-21 21:28N 47°19' W 122°25'0 0.3
2018-Jun-21 21:00N 47°19' W 122°25'0 0.2
2018-Jun-21 20:29N 47°19' W 122°25'0 0.3
2018-Jun-21 20:00N 47°19' W 122°25'1 1.2
2018-Jun-21 19:30N 47°20' W 122°24'4 8.2
2018-Jun-21 19:00N 47°16' W 122°26'1 1.4
2018-Jun-21 18:30N 47°16' W 122°27'1018.1
2018-Jun-21 17:58N 47°25' W 122°31'0 0.6
2018-Jun-21 17:14N 47°26' W 122°31'2 8.2
2018-Jun-21 17:00N 47°28' W 122°31'1 1.4
2018-Jun-21 16:25N 47°27' W 122°31'1 2.4
2018-Jun-21 15:49N 47°26' W 122°31'1 3.0
2018-Jun-21 15:25N 47°24' W 122°31'3 4.6
2018-Jun-21 14:46N 47°21' W 122°32'5 0.3
2018-Jun-20 21:09N 47°18' W 122°27'528.4
2018-Jun-20 20:59N 47°22' W 122°32'3 4.9
2018-Jun-20 20:18N 47°25' W 122°31'1 1.7
2018-Jun-20 20:00N 47°25' W 122°31'0 0.3
2018-Jun-20 19:28N 47°26' W 122°31'0 0.4
2018-Jun-20 18:56N 47°26' W 122°31'0 0.3
2018-Jun-20 18:18N 47°26' W 122°31'1 2.2
2018-Jun-20 17:58N 47°26' W 122°31'1 1.4
2018-Jun-20 17:18N 47°25' W 122°31'823.3
2018-Jun-20 16:59N 47°18' W 122°33'  

Dump ship's entire track history